Kanab, Utah
Current Conditions -  °F | °C
As of 10:35 PM on Tuesday 25 Nov 2014 (Local Time) from KAZC Reporting Station
Clear Clear  
Wind Chill: 25°   Ceiling: Unl
Heat Index: 25°   Visibility: 10mi
Dew Point:   Wind: 3mph
Humidity: 46%   Direction: 140°SE
Pressure: 30.45"   Gusts: NA
Location:  37.05°N, 112.53°W
Report Text: KAZC 260535Z AUTO 14003KT 10SM CLR M04/M14 A3045 RMK AO2 T10411142
Loading
Personal Weather Stations






























Interactive Weather Map New forecast layout! Learn more

10-Day Weather Forecast

Advertisements
Track Severe Weather on mobile